createdAt,value
2019-03-04T00:00:38.803Z,24.40
2019-03-04T00:01:38.794Z,23.90
2019-03-04T00:02:38.778Z,22.10
2019-03-04T00:03:38.762Z,20.50
2019-03-04T00:04:38.769Z,23.50
2019-03-04T00:05:38.741Z,22.90
2019-03-04T00:06:38.722Z,23.40
2019-03-04T00:07:38.715Z,22.30
2019-03-04T00:08:38.728Z,25.20
2019-03-04T00:09:38.697Z,25.50
2019-03-04T00:10:38.695Z,23.80
2019-03-04T00:11:38.667Z,25.20
2019-03-04T00:12:38.664Z,22.90
2019-03-04T00:13:38.682Z,23.80
2019-03-04T00:14:38.646Z,23.30
2019-03-04T00:15:38.644Z,22.70
2019-03-04T00:16:38.613Z,22.90
2019-03-04T00:17:38.624Z,22.70
2019-03-04T00:18:38.593Z,23.90
2019-03-04T00:19:38.605Z,24.70
2019-03-04T00:20:38.583Z,25.20
2019-03-04T00:21:38.558Z,22.50
2019-03-04T00:22:38.548Z,23.70
2019-03-04T00:23:38.536Z,24.20
2019-03-04T00:24:38.551Z,23.20
2019-03-04T00:25:38.514Z,22.20
2019-03-04T00:26:38.505Z,22.90
2019-03-04T00:27:38.505Z,22.30
2019-03-04T00:28:38.498Z,24.80
2019-03-04T00:29:38.508Z,22.00
2019-03-04T00:30:38.469Z,26.90
2019-03-04T00:31:38.457Z,23.80
2019-03-04T00:32:38.453Z,21.50
2019-03-04T00:33:38.441Z,19.80
2019-03-04T00:34:38.422Z,22.80
2019-03-04T00:35:38.442Z,21.50
2019-03-04T00:36:38.419Z,24.90
2019-03-04T00:37:38.396Z,24.20
2019-03-04T00:38:38.378Z,21.50
2019-03-04T00:39:38.379Z,21.40
2019-03-04T00:40:38.362Z,23.60
2019-03-04T00:41:38.387Z,22.00
2019-03-04T00:42:38.333Z,23.10
2019-03-04T00:43:38.327Z,27.50
2019-03-04T00:44:38.321Z,23.30
2019-03-04T00:45:38.301Z,24.40
2019-03-04T00:46:38.296Z,19.10
2019-03-04T00:47:38.294Z,22.70
2019-03-04T00:48:38.267Z,20.80
2019-03-04T00:49:38.270Z,22.90
2019-03-04T00:50:38.247Z,21.00
2019-03-04T00:51:38.234Z,23.60
2019-03-04T00:52:38.249Z,22.40
2019-03-04T00:53:38.217Z,19.70
2019-03-04T00:54:38.234Z,22.30
2019-03-04T00:55:38.214Z,21.40
2019-03-04T00:56:38.199Z,23.00
2019-03-04T00:57:38.173Z,21.10
2019-03-04T00:58:38.183Z,20.70
2019-03-04T00:59:38.174Z,20.00
2019-03-04T01:00:38.140Z,19.70
2019-03-04T01:01:38.153Z,20.00
2019-03-04T01:02:38.113Z,19.90
2019-03-04T01:03:38.133Z,21.50
2019-03-04T01:04:38.110Z,18.40
2019-03-04T01:05:38.090Z,18.00
2019-03-04T01:06:38.076Z,20.30
2019-03-04T01:07:38.066Z,18.40
2019-03-04T01:08:38.082Z,18.10
2019-03-04T01:09:38.047Z,21.10
2019-03-04T01:10:38.034Z,19.30
2019-03-04T01:11:38.030Z,17.80
2019-03-04T01:12:38.010Z,19.20
2019-03-04T01:13:37.996Z,20.70
2019-03-04T01:14:38.005Z,18.50
2019-03-04T01:15:37.978Z,18.50
2019-03-04T01:16:37.972Z,18.70
2019-03-04T01:17:37.965Z,17.30
2019-03-04T01:18:37.963Z,22.60
2019-03-04T01:19:37.949Z,20.60
2019-03-04T01:20:37.923Z,19.90
2019-03-04T01:21:37.932Z,19.60
2019-03-04T01:22:37.905Z,18.30
2019-03-04T01:23:37.894Z,18.70
2019-03-04T01:24:37.903Z,20.80
2019-03-04T01:25:37.865Z,18.10
2019-03-04T01:26:37.865Z,19.10
2019-03-04T01:27:37.846Z,21.20
2019-03-04T01:28:37.838Z,20.60
2019-03-04T01:29:37.827Z,18.40
2019-03-04T01:30:37.827Z,19.80
2019-03-04T01:31:37.814Z,20.90
2019-03-04T01:32:37.799Z,20.70
2019-03-04T01:33:37.780Z,20.80
2019-03-04T01:34:37.767Z,23.50
2019-03-04T01:35:37.790Z,23.50
2019-03-04T01:36:37.758Z,19.50
2019-03-04T01:37:37.773Z,22.10
2019-03-04T01:38:37.737Z,20.80
2019-03-04T01:39:37.716Z,21.30
2019-03-04T01:40:37.718Z,21.90
2019-03-04T01:41:37.722Z,20.80
2019-03-04T01:42:37.709Z,21.70
2019-03-04T01:43:37.719Z,19.80
2019-03-04T01:44:37.669Z,19.00
2019-03-04T01:45:37.650Z,19.80
2019-03-04T01:46:37.655Z,19.40
2019-03-04T01:47:37.665Z,20.00
2019-03-04T01:48:37.622Z,21.70
2019-03-04T01:49:37.609Z,18.30
2019-03-04T01:50:37.599Z,19.50
2019-03-04T01:51:37.590Z,16.30
2019-03-04T01:52:37.575Z,19.50
2019-03-04T01:53:37.598Z,20.30
2019-03-04T01:54:37.552Z,17.90
2019-03-04T01:55:37.554Z,22.50
2019-03-04T01:56:37.528Z,17.40
2019-03-04T01:57:37.549Z,18.90
2019-03-04T01:58:37.535Z,17.10
2019-03-04T01:59:37.501Z,17.00
2019-03-04T02:00:37.488Z,16.70
2019-03-04T02:01:37.534Z,16.10
2019-03-04T02:02:37.480Z,14.70
2019-03-04T02:03:37.461Z,18.20
2019-03-04T02:04:37.472Z,14.90
2019-03-04T02:05:37.440Z,17.10
2019-03-04T02:06:37.430Z,17.30
2019-03-04T02:07:37.408Z,17.30
2019-03-04T02:08:37.397Z,16.80
2019-03-04T02:09:37.410Z,14.90
2019-03-04T02:10:37.419Z,20.20
2019-03-04T02:11:37.375Z,16.60
2019-03-04T02:12:37.364Z,16.80
2019-03-04T02:13:37.363Z,17.20
2019-03-04T02:14:37.354Z,15.60
2019-03-04T02:15:37.362Z,18.00
2019-03-04T02:16:37.326Z,19.90
2019-03-04T02:17:37.298Z,17.50
2019-03-04T02:18:37.296Z,15.50
2019-03-04T02:19:37.289Z,16.20
2019-03-04T02:20:37.278Z,16.10
2019-03-04T02:21:37.290Z,17.70
2019-03-04T02:22:37.246Z,16.10
2019-03-04T02:23:37.236Z,16.60
2019-03-04T02:24:37.242Z,15.30
2019-03-04T02:25:37.217Z,15.50
2019-03-04T02:26:37.214Z,18.40
2019-03-04T02:27:37.252Z,19.50
2019-03-04T02:28:37.180Z,17.30
2019-03-04T02:29:37.173Z,17.00
2019-03-04T02:30:37.173Z,14.90
2019-03-04T02:31:37.155Z,16.60
2019-03-04T02:32:37.192Z,15.30
2019-03-04T02:33:37.151Z,16.50
2019-03-04T02:34:37.181Z,15.70
2019-03-04T02:35:37.111Z,17.00
2019-03-04T02:36:37.096Z,16.30
2019-03-04T02:37:37.098Z,15.40
2019-03-04T02:38:37.096Z,15.00
2019-03-04T02:39:37.069Z,14.70
2019-03-04T02:40:37.050Z,14.40
2019-03-04T02:41:37.049Z,15.30
2019-03-04T02:42:37.069Z,17.20
2019-03-04T02:43:37.060Z,13.10
2019-03-04T02:44:37.023Z,17.10
2019-03-04T02:45:36.995Z,12.30
2019-03-04T02:46:36.994Z,15.20
2019-03-04T02:47:36.985Z,17.60
2019-03-04T02:48:36.965Z,18.80
2019-03-04T02:49:36.982Z,14.40
2019-03-04T02:50:36.950Z,15.50
2019-03-04T02:51:36.930Z,12.90
2019-03-04T02:52:36.919Z,12.50
2019-03-04T02:53:36.918Z,13.30
2019-03-04T02:54:36.921Z,13.30
2019-03-04T02:55:36.909Z,12.40
2019-03-04T02:56:36.920Z,12.40
2019-03-04T02:57:36.871Z,13.90
2019-03-04T02:58:36.866Z,11.80
2019-03-04T02:59:36.883Z,13.10
2019-03-04T03:00:36.872Z,12.10
2019-03-04T03:01:36.830Z,12.10
2019-03-04T03:02:36.825Z,13.10
2019-03-04T03:03:36.816Z,13.70
2019-03-04T03:04:36.813Z,13.10
2019-03-04T03:05:36.802Z,11.20
2019-03-04T03:06:36.802Z,12.80
2019-03-04T03:07:36.773Z,10.50
2019-03-04T03:08:36.760Z,11.90
2019-03-04T03:09:36.741Z,11.40
2019-03-04T03:10:36.738Z,14.30
2019-03-04T03:11:36.738Z,11.60
2019-03-04T03:12:36.709Z,12.30
2019-03-04T03:13:36.714Z,11.60
2019-03-04T03:14:36.692Z,11.00
2019-03-04T03:15:36.683Z,12.60
2019-03-04T03:16:36.693Z,11.40
2019-03-04T03:17:36.657Z,11.20
2019-03-04T03:18:36.650Z,13.00
2019-03-04T03:19:36.641Z,11.20
2019-03-04T03:20:36.628Z,12.60
2019-03-04T03:21:36.613Z,10.80
2019-03-04T03:22:36.637Z,10.40
2019-03-04T03:23:36.595Z,10.60
2019-03-04T03:24:36.583Z,11.70
2019-03-04T03:25:36.577Z,10.10
2019-03-04T03:26:36.575Z,11.30
2019-03-04T03:27:36.553Z,10.80
2019-03-04T03:28:36.563Z,10.80
2019-03-04T03:29:36.550Z,10.30
2019-03-04T03:30:36.522Z,10.90
2019-03-04T03:31:36.532Z,9.40
2019-03-04T03:32:36.494Z,10.50
2019-03-04T03:33:36.497Z,12.10
2019-03-04T03:34:36.507Z,10.60
2019-03-04T03:35:36.502Z,10.60
2019-03-04T03:36:36.448Z,11.70
2019-03-04T03:37:36.461Z,10.10
2019-03-04T03:38:36.432Z,10.60
2019-03-04T03:39:36.419Z,10.00
2019-03-04T03:40:36.691Z,14.10
2019-03-04T03:41:36.403Z,9.60
2019-03-04T03:42:36.387Z,9.00
2019-03-04T03:43:36.379Z,9.40
2019-03-04T03:44:36.363Z,9.20
2019-03-04T03:45:36.384Z,9.90
2019-03-04T03:46:36.336Z,8.60
2019-03-04T03:47:36.339Z,9.00
2019-03-04T03:48:36.347Z,8.70
2019-03-04T03:49:36.321Z,8.70
2019-03-04T03:50:36.296Z,10.10
2019-03-04T03:51:36.305Z,9.90
2019-03-04T03:52:36.287Z,9.10
2019-03-04T03:53:36.259Z,11.20
2019-03-04T03:54:36.266Z,9.30
2019-03-04T03:55:36.245Z,8.10
2019-03-04T03:56:36.245Z,8.00
2019-03-04T03:57:36.236Z,8.00
2019-03-04T03:58:36.204Z,8.80
2019-03-04T03:59:36.198Z,8.70
2019-03-04T04:00:36.191Z,8.30
2019-03-04T04:01:36.196Z,9.50
2019-03-04T04:02:36.209Z,8.90
2019-03-04T04:03:36.151Z,8.40
2019-03-04T04:04:36.143Z,9.10
2019-03-04T04:05:36.140Z,7.30
2019-03-04T04:06:36.129Z,7.20
2019-03-04T04:07:36.128Z,8.80
2019-03-04T04:08:36.104Z,7.30
2019-03-04T04:09:36.103Z,8.80
2019-03-04T04:10:36.081Z,7.40
2019-03-04T04:11:36.084Z,7.40
2019-03-04T04:12:36.073Z,8.80
2019-03-04T04:13:36.040Z,6.30
2019-03-04T04:14:36.104Z,8.50
2019-03-04T04:15:36.023Z,6.70
2019-03-04T04:16:36.022Z,6.80
2019-03-04T04:17:36.041Z,6.30
2019-03-04T04:18:36.064Z,7.50
2019-03-04T04:19:35.980Z,7.10
2019-03-04T04:20:35.968Z,7.80
2019-03-04T04:21:35.956Z,7.80
2019-03-04T04:22:35.977Z,8.10
2019-03-04T04:23:35.954Z,8.40
2019-03-04T04:24:35.928Z,10.80
2019-03-04T04:25:35.920Z,9.20
2019-03-04T04:26:36.016Z,8.20
2019-03-04T04:27:35.903Z,7.80
2019-03-04T04:28:35.881Z,8.80
2019-03-04T04:29:35.917Z,10.00
2019-03-04T04:30:35.886Z,6.80
2019-03-04T04:31:35.875Z,8.30
2019-03-04T04:32:35.860Z,8.10
2019-03-04T04:33:35.840Z,9.40
2019-03-04T04:34:35.825Z,8.10
2019-03-04T04:35:35.820Z,8.10
2019-03-04T04:36:35.802Z,6.20
2019-03-04T04:37:35.790Z,7.20
2019-03-04T04:38:35.803Z,7.40
2019-03-04T04:39:35.768Z,7.10
2019-03-04T04:40:35.757Z,7.20
2019-03-04T04:41:35.739Z,8.50
2019-03-04T04:42:35.725Z,8.10
2019-03-04T04:43:35.716Z,7.50
2019-03-04T04:44:35.744Z,7.40
2019-03-04T04:45:35.720Z,7.20
2019-03-04T04:46:35.700Z,7.30
2019-03-04T04:47:35.676Z,7.50
2019-03-04T04:48:35.679Z,7.20
2019-03-04T04:49:35.659Z,6.50
2019-03-04T04:50:35.663Z,8.40
2019-03-04T04:51:35.631Z,6.80
2019-03-04T04:52:35.637Z,7.00
2019-03-04T04:53:35.606Z,9.00
2019-03-04T04:54:35.597Z,9.90
2019-03-04T04:55:35.635Z,8.20
2019-03-04T04:56:35.602Z,7.40
2019-03-04T04:57:35.577Z,8.20
2019-03-04T04:58:35.570Z,8.50
2019-03-04T04:59:35.544Z,7.90
2019-03-04T05:00:35.571Z,8.30
2019-03-04T05:01:35.529Z,7.50
2019-03-04T05:02:35.520Z,8.90
2019-03-04T05:03:35.502Z,7.50
2019-03-04T05:04:35.516Z,7.10
2019-03-04T05:05:35.514Z,6.60
2019-03-04T05:06:35.517Z,7.30
2019-03-04T05:07:35.474Z,7.30
2019-03-04T05:08:35.465Z,6.80
2019-03-04T05:09:35.445Z,8.10
2019-03-04T05:10:35.435Z,7.00
2019-03-04T05:11:35.446Z,6.10
2019-03-04T05:12:35.418Z,7.80
2019-03-04T05:13:35.414Z,7.20
2019-03-04T05:14:35.397Z,6.50
2019-03-04T05:15:35.382Z,6.40
2019-03-04T05:16:35.363Z,7.30
2019-03-04T05:17:35.367Z,6.90
2019-03-04T05:18:35.346Z,8.70
2019-03-04T05:19:35.335Z,7.70
2019-03-04T05:20:35.317Z,7.00
2019-03-04T05:21:35.318Z,7.30
2019-03-04T05:22:35.362Z,7.40
2019-03-04T05:23:35.284Z,8.00
2019-03-04T05:24:35.287Z,8.10
2019-03-04T05:25:35.272Z,7.60
2019-03-04T05:26:35.296Z,5.60
2019-03-04T05:27:35.271Z,6.80
2019-03-04T05:28:35.243Z,7.20
2019-03-04T05:29:35.226Z,7.90
2019-03-04T05:30:35.210Z,8.80
2019-03-04T05:31:35.206Z,6.60
2019-03-04T05:32:35.195Z,7.90
2019-03-04T05:33:35.221Z,5.90
2019-03-04T05:34:35.166Z,6.60
2019-03-04T05:35:35.153Z,6.70
2019-03-04T05:36:35.156Z,7.20
2019-03-04T05:37:35.157Z,7.50
2019-03-04T05:38:35.134Z,8.50
2019-03-04T05:39:35.162Z,6.60
2019-03-04T05:40:35.113Z,6.10
2019-03-04T05:41:35.091Z,7.20
2019-03-04T05:42:35.093Z,6.40
2019-03-04T05:43:35.074Z,6.30
2019-03-04T05:44:35.068Z,6.30
2019-03-04T05:45:35.074Z,6.30
2019-03-04T05:46:35.047Z,5.60
2019-03-04T05:47:35.035Z,7.50
2019-03-04T05:48:35.023Z,6.70
2019-03-04T05:49:35.039Z,8.30
2019-03-04T05:50:35.000Z,8.20
2019-03-04T05:51:35.009Z,8.40
2019-03-04T05:52:34.971Z,6.50
2019-03-04T05:53:34.989Z,6.50
2019-03-04T05:54:34.960Z,8.20
2019-03-04T05:55:34.968Z,6.20
2019-03-04T05:56:34.949Z,6.10
2019-03-04T05:57:34.922Z,5.30
2019-03-04T05:58:34.912Z,6.30
2019-03-04T05:59:34.905Z,7.10
2019-03-04T06:00:34.908Z,7.30
2019-03-04T06:01:34.902Z,5.30
2019-03-04T06:02:34.867Z,6.40
2019-03-04T06:03:34.864Z,7.80
2019-03-04T06:04:34.845Z,7.20
2019-03-04T06:05:34.840Z,5.20
2019-03-04T06:06:34.825Z,6.50
2019-03-04T06:07:34.839Z,6.60
2019-03-04T06:08:34.816Z,6.30
2019-03-04T06:09:34.796Z,7.00
2019-03-04T06:10:34.792Z,6.20
2019-03-04T06:11:34.794Z,7.20
2019-03-04T06:12:34.789Z,7.50
2019-03-04T06:13:34.749Z,4.90
2019-03-04T06:14:34.762Z,5.70
2019-03-04T06:15:34.728Z,6.10
2019-03-04T06:16:34.718Z,5.30
2019-03-04T06:17:34.735Z,7.30
2019-03-04T06:18:34.722Z,6.10
2019-03-04T06:19:34.705Z,5.60
2019-03-04T06:20:34.677Z,4.50
2019-03-04T06:21:34.677Z,5.90
2019-03-04T06:22:34.655Z,5.70
2019-03-04T06:23:34.682Z,5.80
2019-03-04T06:24:34.626Z,7.20
2019-03-04T06:25:34.616Z,5.70
2019-03-04T06:26:34.626Z,6.10
2019-03-04T06:27:34.602Z,5.80
2019-03-04T06:28:34.605Z,6.40
2019-03-04T06:29:34.586Z,6.90
2019-03-04T06:30:34.599Z,5.00
2019-03-04T06:31:34.551Z,5.80
2019-03-04T06:32:34.549Z,6.00
2019-03-04T06:33:34.569Z,6.20
2019-03-04T06:34:34.543Z,5.10
2019-03-04T06:35:34.516Z,4.10
2019-03-04T06:36:34.503Z,4.90
2019-03-04T06:37:34.493Z,5.20
2019-03-04T06:38:34.517Z,6.30
2019-03-04T06:39:34.492Z,7.00
2019-03-04T06:40:34.463Z,5.30
2019-03-04T06:41:34.462Z,4.90
2019-03-04T06:42:34.449Z,4.60
2019-03-04T06:43:34.443Z,4.80
2019-03-04T06:44:34.443Z,4.50
2019-03-04T06:45:34.407Z,4.00
2019-03-04T06:46:34.399Z,3.70
2019-03-04T06:47:34.397Z,3.70
2019-03-04T06:48:34.390Z,4.60
2019-03-04T06:49:34.371Z,5.30
2019-03-04T06:50:34.376Z,5.50
2019-03-04T06:51:34.343Z,3.90
2019-03-04T06:52:34.343Z,5.30
2019-03-04T06:53:34.322Z,4.70
2019-03-04T06:54:34.315Z,4.20
2019-03-04T06:55:34.293Z,5.00
2019-03-04T06:56:34.317Z,4.30
2019-03-04T06:57:34.286Z,6.40
2019-03-04T06:58:34.280Z,3.60
2019-03-04T06:59:34.259Z,4.40
2019-03-04T07:00:34.244Z,5.20
2019-03-04T07:01:34.230Z,4.00
2019-03-04T07:02:34.238Z,5.20
2019-03-04T07:03:34.225Z,4.30
2019-03-04T07:04:34.214Z,5.30
2019-03-04T07:05:34.193Z,5.60
2019-03-04T07:06:34.180Z,6.50
2019-03-04T07:07:34.193Z,5.20
2019-03-04T07:08:34.154Z,5.30
2019-03-04T07:09:34.153Z,7.50
2019-03-04T07:10:34.134Z,5.00
2019-03-04T07:11:34.121Z,6.00
2019-03-04T07:12:34.112Z,6.70
2019-03-04T07:13:34.143Z,4.20
2019-03-04T07:14:34.107Z,5.10
2019-03-04T07:15:34.086Z,6.10
2019-03-04T07:16:34.068Z,7.80
2019-03-04T07:17:34.102Z,5.40
2019-03-04T07:18:34.050Z,5.20
2019-03-04T07:19:34.073Z,5.80
2019-03-04T07:20:34.023Z,6.10
2019-03-04T07:21:34.029Z,6.70
2019-03-04T07:22:34.004Z,5.40
2019-03-04T07:23:34.019Z,5.20
2019-03-04T07:24:33.991Z,5.80
2019-03-04T07:25:34.016Z,4.90
2019-03-04T07:26:33.967Z,6.10
2019-03-04T07:27:33.976Z,5.90
2019-03-04T07:28:33.943Z,4.60
2019-03-04T07:29:33.952Z,4.60
2019-03-04T07:30:33.939Z,6.60
2019-03-04T07:31:33.923Z,6.40
2019-03-04T07:32:33.909Z,5.30
2019-03-04T07:33:33.903Z,5.80
2019-03-04T07:34:34.122Z,5.10
2019-03-04T07:35:33.868Z,6.00
2019-03-04T07:36:33.879Z,5.80
2019-03-04T07:37:33.868Z,6.00
2019-03-04T07:38:33.873Z,7.20
2019-03-04T07:39:33.817Z,6.50
2019-03-04T07:40:33.851Z,6.40
2019-03-04T07:41:33.801Z,4.80
2019-03-04T07:42:33.788Z,5.00
2019-03-04T07:43:33.786Z,5.70
2019-03-04T07:44:33.816Z,4.90
2019-03-04T07:45:33.759Z,5.40
2019-03-04T07:46:33.807Z,5.10
2019-03-04T07:47:33.741Z,5.30
2019-03-04T07:48:33.731Z,6.10
2019-03-04T07:49:33.715Z,5.50
2019-03-04T07:50:33.731Z,4.80
2019-03-04T07:51:33.693Z,5.50
2019-03-04T07:52:33.697Z,4.70
2019-03-04T07:53:33.683Z,7.30
2019-03-04T07:54:33.685Z,8.10
2019-03-04T07:55:33.660Z,4.20
2019-03-04T07:56:33.648Z,4.90
2019-03-04T07:57:33.657Z,5.40
2019-03-04T07:58:33.674Z,6.30
2019-03-04T07:59:33.614Z,4.40
2019-03-04T08:00:33.591Z,6.90
2019-03-04T08:01:33.590Z,7.60
2019-03-04T08:02:33.593Z,4.10
2019-03-04T08:03:33.591Z,4.80
2019-03-04T08:04:33.551Z,5.70
2019-03-04T08:05:33.559Z,4.80
2019-03-04T08:06:33.540Z,5.20
2019-03-04T08:07:33.521Z,7.80
2019-03-04T08:08:33.528Z,5.50
2019-03-04T08:09:33.527Z,5.20
2019-03-04T08:10:33.491Z,5.80
2019-03-04T08:11:33.474Z,7.40
2019-03-04T08:12:33.468Z,5.60
2019-03-04T08:13:33.477Z,5.90
2019-03-04T08:14:33.449Z,5.10
2019-03-04T08:15:33.501Z,5.20
2019-03-04T08:16:33.423Z,6.10
2019-03-04T08:17:33.435Z,6.20
2019-03-04T08:18:33.481Z,4.50
2019-03-04T08:19:33.394Z,4.70
2019-03-04T08:20:33.385Z,5.00
2019-03-04T08:21:33.410Z,6.30
2019-03-04T08:22:33.379Z,5.80
2019-03-04T08:23:33.351Z,6.00
2019-03-04T08:24:33.377Z,4.90
2019-03-04T08:25:33.371Z,5.50
2019-03-04T08:26:33.346Z,5.30
2019-03-04T08:27:33.304Z,6.00
2019-03-04T08:28:33.306Z,7.70
2019-03-04T08:29:33.295Z,6.00
2019-03-04T08:30:33.271Z,7.20
2019-03-04T08:31:33.267Z,5.20
2019-03-04T08:32:33.281Z,5.50
2019-03-04T08:33:33.244Z,4.50
2019-03-04T08:34:33.244Z,5.20
2019-03-04T08:35:33.226Z,5.20
2019-03-04T08:36:33.232Z,5.50
2019-03-04T08:37:33.210Z,5.50
2019-03-04T08:38:33.212Z,5.00
2019-03-04T08:39:33.178Z,6.00
2019-03-04T08:40:33.206Z,5.20
2019-03-04T08:41:33.149Z,7.80
2019-03-04T08:42:33.142Z,4.50
2019-03-04T08:43:33.161Z,5.20
2019-03-04T08:44:33.151Z,6.10
2019-03-04T08:45:33.107Z,4.40
2019-03-04T08:46:33.171Z,4.60
2019-03-04T08:47:33.089Z,4.20
2019-03-04T08:48:33.136Z,3.50
2019-03-04T08:49:33.105Z,4.10
2019-03-04T08:50:33.089Z,4.10
2019-03-04T08:51:33.048Z,3.50
2019-03-04T08:52:33.036Z,3.40
2019-03-04T08:53:33.020Z,4.00
2019-03-04T08:54:33.092Z,3.60
2019-03-04T08:55:33.015Z,4.40
2019-03-04T08:56:33.016Z,4.00
2019-03-04T08:57:32.989Z,5.30
2019-03-04T08:58:34.353Z,5.00
2019-03-04T08:59:32.954Z,5.30
2019-03-04T09:00:32.963Z,4.30
2019-03-04T09:01:32.995Z,2.20
2019-03-04T09:02:32.947Z,3.30
2019-03-04T09:03:32.913Z,2.40
2019-03-04T09:04:32.913Z,3.20
2019-03-04T09:05:32.891Z,3.40
2019-03-04T09:06:32.903Z,1.60
2019-03-04T09:07:32.897Z,2.00
2019-03-04T09:08:32.865Z,3.70
2019-03-04T09:09:32.853Z,1.40
2019-03-04T09:10:32.849Z,1.70
2019-03-04T09:11:32.837Z,2.90
2019-03-04T09:12:32.839Z,1.70
2019-03-04T09:13:32.812Z,2.80
2019-03-04T09:14:32.802Z,2.40
2019-03-04T09:15:32.825Z,2.80
2019-03-04T09:16:32.767Z,1.70
2019-03-04T09:17:32.765Z,2.10
2019-03-04T09:18:32.803Z,2.50
2019-03-04T09:19:32.744Z,3.20
2019-03-04T09:20:32.776Z,2.40
2019-03-04T09:21:32.714Z,2.00
2019-03-04T09:22:32.706Z,1.70
2019-03-04T09:23:32.707Z,1.80
2019-03-04T09:24:32.710Z,2.10
2019-03-04T09:25:32.678Z,3.00
2019-03-04T09:26:32.668Z,2.60
2019-03-04T09:27:32.657Z,2.30
2019-03-04T09:28:32.652Z,2.70
2019-03-04T09:29:32.637Z,2.20
2019-03-04T09:30:32.651Z,2.20
2019-03-04T09:31:32.613Z,3.10
2019-03-04T09:32:32.648Z,1.70
2019-03-04T09:33:32.586Z,1.30
2019-03-04T09:34:32.588Z,2.60
2019-03-04T09:35:32.840Z,1.50
2019-03-04T09:36:32.587Z,2.10
2019-03-04T09:37:32.557Z,4.00
2019-03-04T09:38:32.534Z,2.00
2019-03-04T09:39:32.532Z,3.50
2019-03-04T09:40:32.545Z,2.00
2019-03-04T09:41:32.545Z,2.60
2019-03-04T09:42:32.507Z,1.80
2019-03-04T09:43:32.494Z,2.50
2019-03-04T09:44:32.483Z,1.60
2019-03-04T09:45:38.721Z,1.90
2019-03-04T09:46:33.480Z,2.90
2019-03-04T09:47:32.444Z,2.60
2019-03-04T09:48:32.452Z,1.50
2019-03-04T09:49:32.422Z,2.10
2019-03-04T09:50:32.403Z,1.70
2019-03-04T09:51:32.395Z,1.50
2019-03-04T09:52:32.416Z,2.30
2019-03-04T09:53:39.458Z,1.70
2019-03-04T09:54:33.378Z,2.40
2019-03-04T09:55:32.358Z,1.80
2019-03-04T09:56:32.341Z,2.60
2019-03-04T09:57:32.332Z,2.30
2019-03-04T09:58:32.342Z,3.10
2019-03-04T09:59:32.426Z,2.80
2019-03-04T10:00:32.297Z,2.80
2019-03-04T10:01:32.289Z,2.90
2019-03-04T10:02:32.345Z,4.20
2019-03-04T10:03:32.274Z,2.60
2019-03-04T10:04:32.274Z,4.80
2019-03-04T10:05:32.254Z,4.00
2019-03-04T10:06:32.241Z,3.30
2019-03-04T10:07:32.365Z,3.10
2019-03-04T10:08:33.026Z,4.80
2019-03-04T10:09:32.249Z,2.90
2019-03-04T10:10:32.191Z,4.30
2019-03-04T10:11:32.198Z,4.30
2019-03-04T10:12:32.168Z,5.50
2019-03-04T10:13:32.165Z,4.00
2019-03-04T10:14:32.153Z,3.60
2019-03-04T10:15:32.172Z,6.10
2019-03-04T10:16:32.135Z,2.60
2019-03-04T10:17:32.122Z,2.80
2019-03-04T10:18:32.145Z,2.20
2019-03-04T10:19:32.098Z,4.10
2019-03-04T10:20:32.112Z,3.80
2019-03-04T10:21:32.093Z,3.20
2019-03-04T10:22:32.065Z,4.80
2019-03-04T10:23:32.052Z,5.30
2019-03-04T10:24:32.060Z,2.50
2019-03-04T10:25:32.037Z,3.50
2019-03-04T10:26:32.043Z,2.60
2019-03-04T10:27:32.016Z,2.50
2019-03-04T10:28:32.027Z,3.70
2019-03-04T10:29:31.989Z,2.40
2019-03-04T10:30:32.001Z,3.70
2019-03-04T10:31:31.961Z,3.50
2019-03-04T10:32:31.996Z,3.30
2019-03-04T10:33:31.945Z,3.30
2019-03-04T10:34:32.146Z,3.10
2019-03-04T10:35:32.007Z,3.70
2019-03-04T10:36:31.914Z,2.20
2019-03-04T10:37:31.928Z,4.10
2019-03-04T10:38:31.928Z,3.30
2019-03-04T10:39:31.882Z,5.00
2019-03-04T10:40:31.885Z,4.50
2019-03-04T10:41:31.858Z,4.60
2019-03-04T10:42:31.866Z,3.60
2019-03-04T10:43:31.866Z,4.30
2019-03-04T10:44:37.524Z,4.80
2019-03-04T10:45:32.817Z,3.50
2019-03-04T10:46:31.799Z,3.30
2019-03-04T10:47:31.824Z,4.80
2019-03-04T10:48:31.777Z,7.30
2019-03-04T10:49:31.777Z,5.00
2019-03-04T10:50:31.785Z,5.80
2019-03-04T10:51:31.751Z,2.80
2019-03-04T10:52:31.755Z,4.70
2019-03-04T10:53:31.740Z,4.40
2019-03-04T10:54:31.727Z,4.50
2019-03-04T10:55:41.240Z,4.80
2019-03-04T10:56:32.693Z,5.20
2019-03-04T10:57:31.700Z,3.60
2019-03-04T10:58:31.667Z,5.20
2019-03-04T10:59:31.662Z,3.50
2019-03-04T11:00:31.660Z,3.40
2019-03-04T11:01:31.646Z,5.10
2019-03-04T11:02:31.761Z,4.30
2019-03-04T11:03:31.618Z,3.60
2019-03-04T11:04:31.624Z,3.20
2019-03-04T11:05:31.611Z,4.60
2019-03-04T11:06:31.583Z,5.00
2019-03-04T11:07:31.570Z,3.10
2019-03-04T11:08:31.675Z,3.60
2019-03-04T11:09:31.563Z,3.30
2019-03-04T11:10:31.537Z,4.60
2019-03-04T11:11:31.543Z,4.70
2019-03-04T11:12:31.520Z,3.90
2019-03-04T11:13:31.526Z,4.80
2019-03-04T11:14:31.507Z,3.70
2019-03-04T11:15:31.487Z,3.40
2019-03-04T11:16:31.542Z,3.70
2019-03-04T11:17:31.465Z,3.00
2019-03-04T11:18:31.481Z,4.30
2019-03-04T11:19:31.484Z,2.90
2019-03-04T11:20:31.448Z,4.30
2019-03-04T11:21:31.423Z,5.30
2019-03-04T11:22:31.409Z,3.30
2019-03-04T11:23:31.482Z,3.50
2019-03-04T11:24:31.435Z,4.90
2019-03-04T11:25:31.417Z,2.60
2019-03-04T11:26:31.461Z,2.80
2019-03-04T11:27:31.350Z,3.30
2019-03-04T11:28:31.346Z,4.60
2019-03-04T11:29:31.327Z,3.80
2019-03-04T11:30:31.369Z,4.00
2019-03-04T11:31:31.316Z,4.80
2019-03-04T11:32:31.306Z,3.20
2019-03-04T11:33:31.323Z,3.50
2019-03-04T11:34:31.285Z,3.70
2019-03-04T11:35:31.269Z,3.40
2019-03-04T11:36:31.288Z,4.20
2019-03-04T11:37:31.239Z,7.20
2019-03-04T11:38:31.248Z,3.10
2019-03-04T11:39:31.229Z,5.30
2019-03-04T11:40:31.214Z,3.70
2019-03-04T11:41:31.193Z,3.60
2019-03-04T11:42:31.235Z,5.50
2019-03-04T11:43:31.188Z,3.90
2019-03-04T11:44:31.166Z,4.50
2019-03-04T11:45:31.162Z,6.20
2019-03-04T11:46:31.160Z,3.70
2019-03-04T11:47:31.137Z,3.20
2019-03-04T11:48:31.162Z,5.90
2019-03-04T11:49:31.105Z,3.80
2019-03-04T11:50:31.122Z,3.30
2019-03-04T11:51:31.117Z,3.70
2019-03-04T11:52:31.070Z,2.50
2019-03-04T11:53:31.062Z,4.70
2019-03-04T11:54:31.047Z,3.80
2019-03-04T11:55:31.045Z,4.30
2019-03-04T11:56:31.132Z,3.50
2019-03-04T11:57:31.057Z,2.30
2019-03-04T11:58:31.023Z,2.40
2019-03-04T11:59:30.995Z,3.30
2019-03-04T12:00:30.988Z,4.50
2019-03-04T12:01:30.996Z,3.30
2019-03-04T12:02:38.638Z,2.80
2019-03-04T12:03:31.958Z,3.00
2019-03-04T12:04:30.944Z,3.60
2019-03-04T12:05:30.972Z,3.10
2019-03-04T12:06:30.916Z,3.00
2019-03-04T12:07:30.936Z,3.10
2019-03-04T12:08:30.907Z,3.50
2019-03-04T12:09:30.898Z,3.80
2019-03-04T12:10:30.901Z,3.90
2019-03-04T12:11:37.995Z,3.70
2019-03-04T12:12:31.883Z,2.40
2019-03-04T12:13:30.847Z,3.70
2019-03-04T12:14:30.833Z,2.50
2019-03-04T12:15:30.838Z,2.80
2019-03-04T12:16:30.835Z,3.20
2019-03-04T12:17:30.807Z,2.40
2019-03-04T12:18:30.817Z,2.50
2019-03-04T12:19:30.787Z,3.40
2019-03-04T12:20:30.767Z,3.10
2019-03-04T12:21:30.764Z,2.70
2019-03-04T12:22:30.746Z,3.20
2019-03-04T12:23:30.764Z,3.50
2019-03-04T12:24:30.734Z,2.70
2019-03-04T12:25:30.740Z,3.00
2019-03-04T12:26:30.712Z,2.10
2019-03-04T12:27:30.708Z,3.70
2019-03-04T12:28:30.692Z,2.60
2019-03-04T12:29:30.701Z,3.20
2019-03-04T12:30:30.668Z,3.80
2019-03-04T12:31:30.664Z,2.20
2019-03-04T12:32:30.645Z,3.30
2019-03-04T12:33:30.634Z,2.00
2019-03-04T12:34:30.635Z,3.00
2019-03-04T12:35:30.604Z,2.10
2019-03-04T12:36:30.738Z,2.00
2019-03-04T12:37:30.596Z,2.30
2019-03-04T12:38:30.583Z,2.80
2019-03-04T12:39:30.593Z,2.40
2019-03-04T12:40:30.559Z,1.90
2019-03-04T12:41:30.545Z,2.30
2019-03-04T12:42:30.535Z,2.60
2019-03-04T12:43:30.529Z,2.30
2019-03-04T12:44:30.510Z,1.40
2019-03-04T12:45:34.369Z,2.50
2019-03-04T12:46:30.490Z,2.50
2019-03-04T12:47:30.484Z,2.10
2019-03-04T12:48:30.490Z,2.20
2019-03-04T12:49:30.502Z,2.10
2019-03-04T12:50:30.476Z,2.90
2019-03-04T12:51:30.438Z,3.70
2019-03-04T12:52:30.441Z,2.20
2019-03-04T12:53:37.326Z,2.10
2019-03-04T12:54:31.708Z,2.40
2019-03-04T12:55:30.394Z,2.20
2019-03-04T12:56:30.397Z,2.60
2019-03-04T12:57:30.395Z,3.00
2019-03-04T12:58:30.360Z,2.00
2019-03-04T12:59:30.347Z,3.30
2019-03-04T13:00:30.420Z,2.00
2019-03-04T13:01:30.355Z,2.10
2019-03-04T13:02:30.319Z,2.50
2019-03-04T13:03:30.335Z,2.10
2019-03-04T13:04:30.314Z,3.10
2019-03-04T13:05:30.288Z,1.90
2019-03-04T13:06:30.285Z,2.20
2019-03-04T13:07:30.297Z,2.00
2019-03-04T13:08:30.259Z,2.40
2019-03-04T13:09:30.259Z,2.20
2019-03-04T13:10:31.742Z,1.90
2019-03-04T13:11:30.219Z,1.70